createdAt,value
2018-06-12T00:00:34.096Z,93.2
2018-06-12T00:01:34.766Z,93.3
2018-06-12T00:02:35.437Z,93.0
2018-06-12T00:03:36.108Z,93.1
2018-06-12T00:04:36.776Z,93.1
2018-06-12T00:05:37.445Z,93.0
2018-06-12T00:06:38.112Z,93.4
2018-06-12T00:07:38.782Z,93.2
2018-06-12T00:08:39.458Z,93.2
2018-06-12T00:09:40.121Z,93.3
2018-06-12T00:10:40.790Z,93.5
2018-06-12T00:11:41.461Z,93.2
2018-06-12T00:12:42.132Z,93.6
2018-06-12T00:13:42.800Z,93.4
2018-06-12T00:14:43.470Z,93.8
2018-06-12T00:15:44.139Z,93.2
2018-06-12T00:16:44.808Z,94.0
2018-06-12T00:17:45.477Z,94.1
2018-06-12T00:18:46.147Z,93.8
2018-06-12T00:19:46.818Z,94.1
2018-06-12T00:20:47.489Z,94.6
2018-06-12T00:21:48.161Z,94.7
2018-06-12T00:22:48.829Z,94.2
2018-06-12T00:23:49.498Z,93.9
2018-06-12T00:24:50.168Z,94.5
2018-06-12T00:25:50.842Z,94.5
2018-06-12T00:26:51.507Z,95.0
2018-06-12T00:27:52.178Z,94.6
2018-06-12T00:28:52.886Z,94.6
2018-06-12T00:29:53.556Z,94.6
2018-06-12T00:30:54.225Z,94.7
2018-06-12T00:31:54.894Z,94.3
2018-06-12T00:32:55.564Z,94.7
2018-06-12T00:33:56.233Z,93.8
2018-06-12T00:34:56.902Z,94.0
2018-06-12T00:35:57.572Z,94.0
2018-06-12T00:36:58.242Z,94.3
2018-06-12T00:37:58.912Z,94.9
2018-06-12T00:38:59.584Z,94.9
2018-06-12T00:40:00.292Z,94.7
2018-06-12T00:41:00.960Z,94.7
2018-06-12T00:42:01.631Z,95.1
2018-06-12T00:43:02.302Z,95.2
2018-06-12T00:44:02.975Z,95.1
2018-06-12T00:45:03.641Z,95.1
2018-06-12T00:46:04.309Z,95.1
2018-06-12T00:47:04.979Z,95.6
2018-06-12T00:48:05.649Z,96.4
2018-06-12T00:49:06.356Z,96.6
2018-06-12T00:50:07.026Z,95.8
2018-06-12T00:51:07.697Z,95.9
2018-06-12T00:52:08.367Z,95.8
2018-06-12T00:53:09.035Z,95.6
2018-06-12T00:54:09.704Z,96.1
2018-06-12T00:55:10.374Z,95.6
2018-06-12T00:56:11.043Z,95.6
2018-06-12T00:57:11.713Z,95.5
2018-06-12T00:58:12.380Z,95.6
2018-06-12T00:59:13.051Z,95.0
2018-06-12T01:00:13.722Z,94.7
2018-06-12T01:01:14.393Z,94.6
2018-06-12T01:02:15.063Z,93.9
2018-06-12T01:03:15.731Z,94.2
2018-06-12T01:04:16.401Z,93.9
2018-06-12T01:05:17.069Z,93.6
2018-06-12T01:06:17.739Z,93.9
2018-06-12T01:07:18.409Z,93.2
2018-06-12T01:08:19.115Z,93.3
2018-06-12T01:09:19.784Z,93.3
2018-06-12T01:10:20.455Z,93.3
2018-06-12T01:11:21.126Z,92.7
2018-06-12T01:12:21.796Z,92.2
2018-06-12T01:13:22.465Z,91.8
2018-06-12T01:14:23.135Z,91.6
2018-06-12T01:15:23.803Z,91.6
2018-06-12T01:16:24.472Z,90.8
2018-06-12T01:17:25.141Z,90.6
2018-06-12T01:18:25.811Z,90.5
2018-06-12T01:19:26.480Z,90.3
2018-06-12T01:20:27.152Z,90.6
2018-06-12T01:21:27.860Z,90.2
2018-06-12T01:22:28.535Z,89.8
2018-06-12T01:23:29.203Z,89.5
2018-06-12T01:24:29.871Z,90.0
2018-06-12T01:25:30.541Z,90.1
2018-06-12T01:26:31.211Z,90.1
2018-06-12T01:27:31.879Z,90.5
2018-06-12T01:28:32.552Z,89.9
2018-06-12T01:29:33.256Z,89.7
2018-06-12T01:30:33.926Z,88.8
2018-06-12T01:31:34.597Z,88.5
2018-06-12T01:32:35.265Z,88.3
2018-06-12T01:33:35.947Z,88.3
2018-06-12T01:34:36.642Z,88.2
2018-06-12T01:35:37.313Z,88.1
2018-06-12T01:36:37.994Z,88.2
2018-06-12T01:37:38.651Z,87.8
2018-06-12T01:38:39.320Z,87.8
2018-06-12T01:39:39.990Z,87.2
2018-06-12T01:40:40.659Z,86.9
2018-06-12T01:41:41.328Z,86.2
2018-06-12T01:42:41.998Z,84.4
2018-06-12T01:43:42.669Z,83.9
2018-06-12T01:44:43.340Z,84.5
2018-06-12T01:45:44.011Z,84.6
2018-06-12T01:46:44.680Z,84.6
2018-06-12T01:47:45.352Z,84.4
2018-06-12T01:48:46.019Z,84.4
2018-06-12T01:49:46.741Z,82.6
2018-06-12T01:50:47.446Z,82.2
2018-06-12T01:51:48.116Z,82.0
2018-06-12T01:52:48.822Z,82.3
2018-06-12T01:53:49.493Z,81.2
2018-06-12T01:54:50.200Z,80.4
2018-06-12T01:55:50.869Z,79.5
2018-06-12T01:56:51.539Z,80.0
2018-06-12T01:57:52.207Z,79.9
2018-06-12T01:58:52.878Z,80.4
2018-06-12T01:59:53.546Z,80.2
2018-06-12T02:00:54.215Z,80.0
2018-06-12T02:01:54.886Z,79.8
2018-06-12T02:02:55.555Z,79.8
2018-06-12T02:03:56.243Z,79.1
2018-06-12T02:04:56.934Z,79.3
2018-06-12T02:05:57.605Z,78.6
2018-06-12T02:06:58.276Z,78.5
2018-06-12T02:07:58.945Z,77.6
2018-06-12T02:08:59.614Z,77.0
2018-06-12T02:10:00.321Z,77.5
2018-06-12T02:11:00.991Z,77.0
2018-06-12T02:12:01.660Z,77.5
2018-06-12T02:13:02.330Z,77.2
2018-06-12T02:14:03.040Z,77.0
2018-06-12T02:15:03.706Z,76.9
2018-06-12T02:16:04.376Z,78.0
2018-06-12T02:17:05.047Z,76.9
2018-06-12T02:18:05.716Z,76.8
2018-06-12T02:19:06.386Z,76.8
2018-06-12T02:20:07.105Z,76.5
2018-06-12T02:21:07.773Z,76.8
2018-06-12T02:22:08.444Z,76.7
2018-06-12T02:23:09.115Z,76.8
2018-06-12T02:24:09.823Z,76.3
2018-06-12T02:25:10.495Z,75.9
2018-06-12T02:26:11.165Z,75.3
2018-06-12T02:27:11.834Z,75.4
2018-06-12T02:28:12.501Z,75.9
2018-06-12T02:29:13.170Z,75.7
2018-06-12T02:30:13.840Z,75.7
2018-06-12T02:31:14.508Z,75.3
2018-06-12T02:32:15.178Z,76.2
2018-06-12T02:33:15.847Z,76.5
2018-06-12T02:34:16.519Z,76.3
2018-06-12T02:35:17.238Z,76.7
2018-06-12T02:36:17.944Z,76.8
2018-06-12T02:37:18.611Z,76.7
2018-06-12T02:38:19.320Z,75.4
2018-06-12T02:39:19.986Z,75.3
2018-06-12T02:40:20.655Z,76.2
2018-06-12T02:41:21.325Z,75.8
2018-06-12T02:42:21.994Z,75.3
2018-06-12T02:43:22.663Z,75.9
2018-06-12T02:44:23.334Z,76.0
2018-06-12T02:45:24.034Z,76.3
2018-06-12T02:46:24.674Z,76.6
2018-06-12T02:47:25.345Z,76.9
2018-06-12T02:48:26.011Z,76.7
2018-06-12T02:49:26.680Z,77.2
2018-06-12T02:50:27.352Z,76.7
2018-06-12T02:51:28.019Z,76.5
2018-06-12T02:52:28.692Z,76.6
2018-06-12T02:53:29.355Z,76.7
2018-06-12T02:54:30.027Z,75.8
2018-06-12T02:55:30.698Z,76.0
2018-06-12T02:56:31.367Z,76.6
2018-06-12T02:57:32.036Z,76.2
2018-06-12T02:58:32.705Z,76.2
2018-06-12T02:59:33.375Z,76.9
2018-06-12T03:00:34.047Z,76.8
2018-06-12T03:01:34.722Z,76.7
2018-06-12T03:02:35.389Z,77.0
2018-06-12T03:03:36.059Z,76.9
2018-06-12T03:04:36.728Z,77.3
2018-06-12T03:05:37.399Z,76.9
2018-06-12T03:06:38.071Z,76.6
2018-06-12T03:07:38.742Z,76.8
2018-06-12T03:08:39.411Z,76.6
2018-06-12T03:09:40.081Z,77.0
2018-06-12T03:10:40.753Z,77.1
2018-06-12T03:11:41.460Z,76.6
2018-06-12T03:12:42.130Z,76.5
2018-06-12T03:13:42.800Z,77.0
2018-06-12T03:14:43.472Z,77.0
2018-06-12T03:15:44.144Z,77.2
2018-06-12T03:16:44.814Z,77.1
2018-06-12T03:17:45.482Z,77.9
2018-06-12T03:18:46.152Z,80.0
2018-06-12T03:19:46.823Z,80.8
2018-06-12T03:20:47.494Z,81.2
2018-06-12T03:21:48.165Z,80.6
2018-06-12T03:22:48.835Z,82.0
2018-06-12T03:23:49.504Z,82.1
2018-06-12T03:24:50.174Z,82.3
2018-06-12T03:25:50.845Z,81.7
2018-06-12T03:26:51.517Z,81.8
2018-06-12T03:27:52.188Z,81.9
2018-06-12T03:28:52.857Z,81.7
2018-06-12T03:29:53.529Z,81.9
2018-06-12T03:30:54.202Z,82.5
2018-06-12T03:31:54.872Z,82.5
2018-06-12T03:32:55.542Z,83.1
2018-06-12T03:33:56.212Z,83.5
2018-06-12T03:34:56.884Z,83.4
2018-06-12T03:35:57.583Z,83.2
2018-06-12T03:36:58.231Z,83.4
2018-06-12T03:37:58.907Z,83.4
2018-06-12T03:38:59.573Z,83.1
2018-06-12T03:40:00.241Z,83.9
2018-06-12T03:41:00.914Z,83.9
2018-06-12T03:42:01.586Z,84.0
2018-06-12T03:43:02.256Z,84.6
2018-06-12T03:44:02.927Z,85.8
2018-06-12T03:45:03.598Z,85.6
2018-06-12T03:46:04.270Z,85.5
2018-06-12T03:47:04.943Z,85.5
2018-06-12T03:48:05.613Z,84.9
2018-06-12T03:49:06.284Z,85.1
2018-06-12T03:50:06.957Z,85.0
2018-06-12T03:51:07.628Z,84.4
2018-06-12T03:52:08.298Z,84.3
2018-06-12T03:53:08.969Z,84.7
2018-06-12T03:54:09.640Z,84.8
2018-06-12T03:55:10.313Z,85.5
2018-06-12T03:56:10.986Z,85.5
2018-06-12T03:57:11.658Z,85.7
2018-06-12T03:58:12.334Z,86.5
2018-06-12T03:59:13.003Z,86.2
2018-06-12T04:00:13.672Z,86.0
2018-06-12T04:01:14.343Z,86.1
2018-06-12T04:02:15.014Z,86.5
2018-06-12T04:03:15.685Z,86.9
2018-06-12T04:04:16.358Z,87.0
2018-06-12T04:05:17.035Z,87.3
2018-06-12T04:06:17.792Z,87.3
2018-06-12T04:07:18.467Z,87.4
2018-06-12T04:08:19.135Z,87.5
2018-06-12T04:09:19.847Z,87.0
2018-06-12T04:10:20.480Z,86.5
2018-06-12T04:11:21.154Z,86.8
2018-06-12T04:12:21.825Z,87.3
2018-06-12T04:13:22.497Z,86.1
2018-06-12T04:14:23.170Z,86.2
2018-06-12T04:15:23.842Z,86.3
2018-06-12T04:16:24.514Z,86.3
2018-06-12T04:17:25.185Z,86.3
2018-06-12T04:18:25.857Z,85.4
2018-06-12T04:19:26.531Z,85.5
2018-06-12T04:20:27.245Z,85.5
2018-06-12T04:21:27.875Z,85.6
2018-06-12T04:22:28.549Z,85.2
2018-06-12T04:23:29.222Z,85.7
2018-06-12T04:24:29.893Z,85.4
2018-06-12T04:25:30.569Z,85.3
2018-06-12T04:26:31.240Z,85.3
2018-06-12T04:27:31.913Z,85.2
2018-06-12T04:28:32.585Z,85.1
2018-06-12T04:29:33.258Z,85.6
2018-06-12T04:30:33.931Z,85.2
2018-06-12T04:31:34.603Z,84.7
2018-06-12T04:32:35.276Z,85.1
2018-06-12T04:33:35.954Z,85.0
2018-06-12T04:34:36.664Z,85.4
2018-06-12T04:35:37.338Z,85.3
2018-06-12T04:36:38.011Z,84.7
2018-06-12T04:37:38.685Z,84.3
2018-06-12T04:38:39.356Z,84.2
2018-06-12T04:39:40.032Z,84.5
2018-06-12T04:40:40.704Z,84.6
2018-06-12T04:41:41.378Z,83.9
2018-06-12T04:42:42.052Z,84.5
2018-06-12T04:43:42.728Z,84.3
2018-06-12T04:44:43.438Z,84.0
2018-06-12T04:45:44.112Z,84.6
2018-06-12T04:46:44.822Z,84.3
2018-06-12T04:47:45.499Z,84.3
2018-06-12T04:48:46.173Z,84.0
2018-06-12T04:49:46.846Z,84.0
2018-06-12T04:50:47.520Z,84.3
2018-06-12T04:51:48.192Z,84.1
2018-06-12T04:52:48.865Z,83.8
2018-06-12T04:53:49.538Z,84.1
2018-06-12T04:54:50.255Z,83.9
2018-06-12T04:55:50.928Z,84.1
2018-06-12T04:56:51.611Z,84.0
2018-06-12T04:57:52.277Z,83.7
2018-06-12T04:58:52.948Z,83.4
2018-06-12T04:59:53.620Z,83.8
2018-06-12T05:00:54.296Z,83.8
2018-06-12T05:01:54.971Z,83.6
2018-06-12T05:02:55.682Z,83.9
2018-06-12T05:03:56.357Z,83.0
2018-06-12T05:04:57.035Z,82.8
2018-06-12T05:05:57.712Z,82.6
2018-06-12T05:06:58.416Z,83.1
2018-06-12T05:07:59.090Z,82.4
2018-06-12T05:08:59.764Z,82.9
2018-06-12T05:10:00.437Z,82.4
2018-06-12T05:11:01.112Z,82.5
2018-06-12T05:12:01.786Z,83.2
2018-06-12T05:13:02.459Z,83.1
2018-06-12T05:14:03.133Z,82.6
2018-06-12T05:15:03.808Z,83.0
2018-06-12T05:16:04.482Z,82.3
2018-06-12T05:17:05.155Z,82.2
2018-06-12T05:18:05.830Z,82.5
2018-06-12T05:19:06.503Z,82.6
2018-06-12T05:20:07.177Z,82.4
2018-06-12T05:21:07.852Z,82.0
2018-06-12T05:22:08.528Z,81.9
2018-06-12T05:23:09.202Z,82.1
2018-06-12T05:24:09.876Z,82.1
2018-06-12T05:25:10.553Z,82.1
2018-06-12T05:26:11.261Z,82.3
2018-06-12T05:27:11.934Z,82.4
2018-06-12T05:28:12.610Z,81.3
2018-06-12T05:29:13.285Z,81.4
2018-06-12T05:30:13.959Z,81.7
2018-06-12T05:31:14.640Z,81.2
2018-06-12T05:32:15.307Z,81.6
2018-06-12T05:33:15.979Z,81.3
2018-06-12T05:34:16.655Z,81.4
2018-06-12T05:35:17.328Z,81.6
2018-06-12T05:36:18.003Z,81.3
2018-06-12T05:37:18.678Z,81.7
2018-06-12T05:38:19.351Z,81.6
2018-06-12T05:39:20.026Z,81.6
2018-06-12T05:40:20.701Z,81.2
2018-06-12T05:41:21.377Z,81.1
2018-06-12T05:42:22.050Z,81.0
2018-06-12T05:43:22.726Z,80.8
2018-06-12T05:44:23.400Z,80.4
2018-06-12T05:45:24.075Z,80.0
2018-06-12T05:46:24.752Z,80.4
2018-06-12T05:47:25.428Z,79.8
2018-06-12T05:48:26.103Z,79.7
2018-06-12T05:49:26.778Z,80.4
2018-06-12T05:50:27.453Z,79.8
2018-06-12T05:51:28.130Z,79.7
2018-06-12T05:52:28.805Z,78.3
2018-06-12T05:53:29.484Z,78.7
2018-06-12T05:54:30.160Z,77.8
2018-06-12T05:55:30.840Z,77.2
2018-06-12T05:56:31.557Z,77.1
2018-06-12T05:57:32.229Z,76.9
2018-06-12T05:58:32.907Z,75.3
2018-06-12T05:59:33.621Z,74.5
2018-06-12T06:00:34.299Z,73.9
2018-06-12T06:01:34.975Z,71.9
2018-06-12T06:02:35.654Z,72.1
2018-06-12T06:03:36.331Z,70.8
2018-06-12T06:04:37.009Z,70.4
2018-06-12T06:05:37.691Z,69.5
2018-06-12T06:06:38.363Z,69.0
2018-06-12T06:07:39.042Z,68.5
2018-06-12T06:08:39.719Z,67.9
2018-06-12T06:09:40.396Z,67.3
2018-06-12T06:10:41.135Z,68.0
2018-06-12T06:11:41.787Z,67.3
2018-06-12T06:12:42.465Z,67.4
2018-06-12T06:13:43.182Z,67.0
2018-06-12T06:14:43.897Z,67.0
2018-06-12T06:15:44.576Z,68.0
2018-06-12T06:16:45.254Z,68.0
2018-06-12T06:17:45.967Z,67.7
2018-06-12T06:18:46.644Z,68.1
2018-06-12T06:19:47.323Z,68.2
2018-06-12T06:20:47.999Z,68.0
2018-06-12T06:21:48.681Z,68.2
2018-06-12T06:22:49.353Z,68.5
2018-06-12T06:23:50.032Z,69.2
2018-06-12T06:24:50.710Z,69.5
2018-06-12T06:25:51.387Z,69.7
2018-06-12T06:26:52.063Z,69.9
2018-06-12T06:27:52.742Z,69.9
2018-06-12T06:28:53.419Z,70.0
2018-06-12T06:29:54.100Z,70.4
2018-06-12T06:30:54.773Z,70.5
2018-06-12T06:31:55.450Z,71.0
2018-06-12T06:32:56.128Z,71.1
2018-06-12T06:33:56.805Z,71.7
2018-06-12T06:34:57.481Z,71.7
2018-06-12T06:35:58.159Z,71.6
2018-06-12T06:36:58.837Z,72.0
2018-06-12T06:37:59.513Z,72.4
2018-06-12T06:39:00.196Z,72.5
2018-06-12T06:40:00.866Z,72.1
2018-06-12T06:41:01.541Z,71.9
2018-06-12T06:42:02.221Z,71.9
2018-06-12T06:43:02.975Z,71.9
2018-06-12T06:44:03.632Z,72.4
2018-06-12T06:45:04.328Z,72.4
2018-06-12T06:46:05.005Z,71.1
2018-06-12T06:47:05.681Z,72.0
2018-06-12T06:48:06.360Z,72.1
2018-06-12T06:49:07.037Z,71.2
2018-06-12T06:50:07.716Z,71.6
2018-06-12T06:51:08.417Z,71.0
2018-06-12T06:52:09.070Z,71.0
2018-06-12T06:53:09.748Z,71.7
2018-06-12T06:54:10.426Z,70.9
2018-06-12T06:55:11.103Z,70.6
2018-06-12T06:56:11.781Z,69.7
2018-06-12T06:57:12.458Z,69.3
2018-06-12T06:58:13.172Z,69.5
2018-06-12T06:59:13.855Z,69.7
2018-06-12T07:00:14.567Z,69.4
2018-06-12T07:01:15.243Z,69.8
2018-06-12T07:02:15.920Z,69.5
2018-06-12T07:03:16.597Z,68.9
2018-06-12T07:04:17.274Z,69.1
2018-06-12T07:05:17.951Z,69.0
2018-06-12T07:06:18.628Z,69.2
2018-06-12T07:07:19.306Z,68.8
2018-06-12T07:08:19.987Z,69.0
2018-06-12T07:09:20.697Z,67.7
2018-06-12T07:10:21.374Z,68.4
2018-06-12T07:11:22.051Z,68.6
2018-06-12T07:12:22.728Z,68.4
2018-06-12T07:13:23.407Z,68.2
2018-06-12T07:14:24.085Z,68.5
2018-06-12T07:15:24.762Z,68.1
2018-06-12T07:16:25.441Z,68.7
2018-06-12T07:17:26.119Z,68.4
2018-06-12T07:18:26.797Z,67.4
2018-06-12T07:19:27.477Z,67.6
2018-06-12T07:20:28.155Z,66.6
2018-06-12T07:21:28.836Z,66.4
2018-06-12T07:22:29.515Z,65.5
2018-06-12T07:23:30.195Z,64.6
2018-06-12T07:24:30.912Z,62.9
2018-06-12T07:25:31.590Z,62.9
2018-06-12T07:26:32.270Z,63.0
2018-06-12T07:27:32.951Z,62.2
2018-06-12T07:28:33.628Z,62.1
2018-06-12T07:29:34.344Z,62.0
2018-06-12T07:30:35.024Z,61.3
2018-06-12T07:31:35.705Z,61.0
2018-06-12T07:32:36.385Z,61.7
2018-06-12T07:33:37.065Z,61.0
2018-06-12T07:34:37.745Z,60.3
2018-06-12T07:35:38.424Z,59.8
2018-06-12T07:36:39.106Z,60.7
2018-06-12T07:37:39.864Z,59.7
2018-06-12T07:38:40.469Z,59.0
2018-06-12T07:39:41.149Z,58.9
2018-06-12T07:40:41.866Z,58.1
2018-06-12T07:41:42.545Z,58.2
2018-06-12T07:42:43.224Z,57.7
2018-06-12T07:43:43.903Z,57.7
2018-06-12T07:44:44.581Z,58.2
2018-06-12T07:45:45.262Z,57.7
2018-06-12T07:46:45.940Z,57.6
2018-06-12T07:47:46.620Z,58.2
2018-06-12T07:48:47.298Z,58.4
2018-06-12T07:49:47.979Z,59.1
2018-06-12T07:50:48.657Z,58.8
2018-06-12T07:51:49.336Z,58.8
2018-06-12T07:52:50.022Z,58.3
2018-06-12T07:53:50.737Z,58.7
2018-06-12T07:54:51.419Z,59.2
2018-06-12T07:55:52.100Z,58.9
2018-06-12T07:56:52.826Z,60.0
2018-06-12T07:57:53.506Z,59.7
2018-06-12T07:58:54.193Z,58.6
2018-06-12T07:59:54.873Z,58.3
2018-06-12T08:00:55.595Z,58.1
2018-06-12T08:01:56.240Z,57.5
2018-06-12T08:02:56.927Z,57.2
2018-06-12T08:03:57.608Z,56.0
2018-06-12T08:04:58.289Z,54.8
2018-06-12T08:05:58.976Z,51.5
2018-06-12T08:06:59.662Z,50.6
2018-06-12T08:08:00.338Z,49.7
2018-06-12T08:09:01.025Z,50.6
2018-06-12T08:10:01.715Z,49.6
2018-06-12T08:11:02.395Z,49.5
2018-06-12T08:12:03.083Z,49.8
2018-06-12T08:13:03.800Z,48.8
2018-06-12T08:14:04.451Z,48.7
2018-06-12T08:15:05.134Z,48.3
2018-06-12T08:16:05.822Z,47.6
2018-06-12T08:17:06.509Z,46.6
2018-06-12T08:18:07.195Z,45.9
2018-06-12T08:19:07.880Z,45.8
2018-06-12T08:20:08.559Z,45.9
2018-06-12T08:21:09.243Z,46.1
2018-06-12T08:22:09.930Z,46.2
2018-06-12T08:23:10.619Z,46.1
2018-06-12T08:24:11.304Z,46.0
2018-06-12T08:25:11.985Z,46.0
2018-06-12T08:26:12.671Z,46.0
2018-06-12T08:27:13.356Z,46.5
2018-06-12T08:28:14.039Z,45.8
2018-06-12T08:29:14.722Z,46.8
2018-06-12T08:30:15.489Z,46.4
2018-06-12T08:31:16.094Z,46.3
2018-06-12T08:32:16.779Z,45.9
2018-06-12T08:33:17.461Z,45.4
2018-06-12T08:34:18.145Z,45.9
2018-06-12T08:35:18.835Z,45.4
2018-06-12T08:36:19.559Z,44.7
2018-06-12T08:37:20.241Z,45.1
2018-06-12T08:38:20.923Z,45.5
2018-06-12T08:39:21.612Z,46.4
2018-06-12T08:40:22.292Z,46.6
2018-06-12T08:41:22.979Z,44.9
2018-06-12T08:42:23.662Z,43.8
2018-06-12T08:43:24.347Z,42.5
2018-06-12T08:44:25.033Z,40.5
2018-06-12T08:45:25.719Z,40.7
2018-06-12T08:46:26.419Z,39.9
2018-06-12T08:47:27.086Z,39.1
2018-06-12T08:48:27.771Z,38.8
2018-06-12T08:49:28.455Z,38.4
2018-06-12T08:50:29.137Z,38.6
2018-06-12T08:51:29.822Z,38.5
2018-06-12T08:52:30.546Z,39.0
2018-06-12T08:53:31.274Z,39.3
2018-06-12T08:54:31.958Z,40.1
2018-06-12T08:55:32.641Z,40.2
2018-06-12T08:56:33.327Z,40.9
2018-06-12T08:57:34.011Z,41.0
2018-06-12T08:58:34.692Z,41.3
2018-06-12T08:59:35.378Z,41.6
2018-06-12T09:00:36.060Z,42.6
2018-06-12T09:01:36.779Z,43.4
2018-06-12T09:02:37.521Z,43.5
2018-06-12T09:03:38.187Z,42.9
2018-06-12T09:04:38.871Z,42.3
2018-06-12T09:05:39.554Z,43.8
2018-06-12T09:06:40.240Z,43.4
2018-06-12T09:07:40.932Z,42.3
2018-06-12T09:08:41.620Z,43.6
2018-06-12T09:09:42.345Z,41.5
2018-06-12T09:10:43.033Z,42.0
2018-06-12T09:11:43.719Z,42.3
2018-06-12T09:12:44.409Z,42.5
2018-06-12T09:13:45.089Z,43.7
2018-06-12T09:14:45.777Z,43.9
2018-06-12T09:15:46.460Z,44.4
2018-06-12T09:16:47.147Z,44.4
2018-06-12T09:17:47.826Z,44.1
2018-06-12T09:18:48.510Z,44.3
2018-06-12T09:19:49.193Z,43.8
2018-06-12T09:20:49.876Z,44.8
2018-06-12T09:21:50.559Z,44.2
2018-06-12T09:22:51.241Z,44.5
2018-06-12T09:23:51.926Z,44.3
2018-06-12T09:24:52.611Z,43.6
2018-06-12T09:25:53.293Z,43.4
2018-06-12T09:26:53.979Z,43.7
2018-06-12T09:27:54.664Z,43.5
2018-06-12T09:28:55.344Z,43.8
2018-06-12T09:29:56.028Z,43.8
2018-06-12T09:30:56.709Z,44.1
2018-06-12T09:31:57.393Z,44.2
2018-06-12T09:32:58.079Z,44.6
2018-06-12T09:33:58.796Z,44.5
2018-06-12T09:34:59.480Z,44.1
2018-06-12T09:36:00.164Z,43.8
2018-06-12T09:37:00.851Z,44.3
2018-06-12T09:38:01.535Z,44.3
2018-06-12T09:39:02.215Z,44.4
2018-06-12T09:40:02.900Z,45.0
2018-06-12T09:41:03.580Z,45.2
2018-06-12T09:42:04.277Z,45.3
2018-06-12T09:43:04.948Z,45.2
2018-06-12T09:44:05.631Z,45.5
2018-06-12T09:45:06.317Z,46.0
2018-06-12T09:46:07.036Z,46.5
2018-06-12T09:47:07.722Z,46.7
2018-06-12T09:48:08.408Z,46.8
2018-06-12T09:49:09.124Z,46.4
2018-06-12T09:50:09.767Z,47.2
2018-06-12T09:51:10.448Z,48.1
2018-06-12T09:52:11.131Z,48.2
2018-06-12T09:53:11.816Z,47.5
2018-06-12T09:54:12.497Z,46.9
2018-06-12T09:55:13.177Z,46.7
2018-06-12T09:56:13.857Z,46.8
2018-06-12T09:57:14.540Z,45.7
2018-06-12T09:58:15.221Z,45.4
2018-06-12T09:59:15.905Z,45.3
2018-06-12T10:00:16.623Z,44.9
2018-06-12T10:01:17.302Z,44.1
2018-06-12T10:02:17.983Z,44.2
2018-06-12T10:03:18.705Z,44.4
2018-06-12T10:04:19.388Z,44.4
2018-06-12T10:05:20.068Z,44.2
2018-06-12T10:06:20.757Z,44.9
2018-06-12T10:07:21.441Z,44.9
2018-06-12T10:08:22.122Z,45.0
2018-06-12T10:09:22.811Z,45.0
2018-06-12T10:10:23.493Z,45.1
2018-06-12T10:11:24.175Z,46.0
2018-06-12T10:12:24.865Z,46.1
2018-06-12T10:13:25.552Z,46.8
2018-06-12T10:14:26.230Z,46.8
2018-06-12T10:15:26.916Z,46.4
2018-06-12T10:16:27.597Z,46.6
2018-06-12T10:17:28.281Z,46.6
2018-06-12T10:18:28.962Z,46.8
2018-06-12T10:19:29.645Z,46.4
2018-06-12T10:20:30.328Z,46.0
2018-06-12T10:21:31.009Z,44.8
2018-06-12T10:22:31.692Z,45.0
2018-06-12T10:23:32.373Z,44.0
2018-06-12T10:24:33.057Z,44.1
2018-06-12T10:25:33.744Z,43.0
2018-06-12T10:26:34.422Z,42.7
2018-06-12T10:27:35.109Z,43.4
2018-06-12T10:28:35.788Z,44.1
2018-06-12T10:29:36.511Z,44.4
2018-06-12T10:30:37.196Z,44.3
2018-06-12T10:31:37.915Z,43.7
2018-06-12T10:32:38.598Z,44.3
2018-06-12T10:33:39.279Z,45.1
2018-06-12T10:34:39.962Z,45.5
2018-06-12T10:35:40.645Z,45.9
2018-06-12T10:36:41.327Z,45.8
2018-06-12T10:37:42.010Z,45.9
2018-06-12T10:38:42.692Z,45.2
2018-06-12T10:39:43.375Z,44.2
2018-06-12T10:40:44.059Z,42.7
2018-06-12T10:41:44.740Z,44.0
2018-06-12T10:42:45.424Z,45.1
2018-06-12T10:43:46.144Z,45.8
2018-06-12T10:44:46.787Z,45.9
2018-06-12T10:45:47.471Z,46.0
2018-06-12T10:46:48.158Z,44.8
2018-06-12T10:47:48.836Z,44.0
2018-06-12T10:48:49.519Z,44.1
2018-06-12T10:49:50.202Z,44.1
2018-06-12T10:50:50.884Z,45.3
2018-06-12T10:51:51.567Z,44.3
2018-06-12T10:52:52.252Z,44.3
2018-06-12T10:53:52.932Z,44.7
2018-06-12T10:54:53.654Z,45.3
2018-06-12T10:55:54.337Z,46.0
2018-06-12T10:56:55.086Z,46.1
2018-06-12T10:57:55.730Z,46.0
2018-06-12T10:58:56.412Z,46.1
2018-06-12T10:59:57.094Z,45.1
2018-06-12T11:00:57.775Z,46.0
2018-06-12T11:01:58.460Z,47.1
2018-06-12T11:02:59.140Z,47.2
2018-06-12T11:03:59.823Z,48.2
2018-06-12T11:05:00.507Z,48.5
2018-06-12T11:06:01.226Z,48.0
2018-06-12T11:07:01.910Z,48.1
2018-06-12T11:08:02.592Z,48.8
2018-06-12T11:09:03.274Z,49.7
2018-06-12T11:10:03.960Z,49.1
2018-06-12T11:11:04.639Z,49.7
2018-06-12T11:12:05.322Z,49.7
2018-06-12T11:13:06.004Z,49.8
2018-06-12T11:14:06.694Z,49.0
2018-06-12T11:15:07.410Z,48.6
2018-06-12T11:16:08.094Z,48.9
2018-06-12T11:17:08.774Z,48.0
2018-06-12T11:18:09.458Z,47.5
2018-06-12T11:19:10.145Z,48.1
2018-06-12T11:20:10.822Z,47.5
2018-06-12T11:21:11.505Z,46.9
2018-06-12T11:22:12.187Z,46.8
2018-06-12T11:23:12.870Z,46.7
2018-06-12T11:24:13.551Z,46.6
2018-06-12T11:25:14.233Z,47.1
2018-06-12T11:26:14.916Z,47.1
2018-06-12T11:27:15.649Z,47.0
2018-06-12T11:28:16.280Z,47.4
2018-06-12T11:29:16.962Z,47.3
2018-06-12T11:30:17.648Z,48.2
2018-06-12T11:31:18.331Z,48.5
2018-06-12T11:32:19.048Z,48.8
2018-06-12T11:33:19.730Z,47.4
2018-06-12T11:34:20.411Z,47.5
2018-06-12T11:35:21.092Z,47.4
2018-06-12T11:36:21.777Z,47.0
2018-06-12T11:37:22.460Z,47.2
2018-06-12T11:38:23.183Z,46.7
2018-06-12T11:39:23.861Z,46.7
2018-06-12T11:40:24.543Z,46.9
2018-06-12T11:41:25.226Z,46.6
2018-06-12T11:42:25.908Z,46.9
2018-06-12T11:43:26.591Z,46.9
2018-06-12T11:44:27.272Z,46.7
2018-06-12T11:45:27.956Z,46.8
2018-06-12T11:46:28.638Z,46.5
2018-06-12T11:47:29.322Z,46.9
2018-06-12T11:48:30.005Z,46.9
2018-06-12T11:49:30.685Z,46.4
2018-06-12T11:50:31.369Z,46.3
2018-06-12T11:51:32.050Z,45.4
2018-06-12T11:52:32.733Z,45.4
2018-06-12T11:53:33.415Z,45.1
2018-06-12T11:54:34.097Z,45.8
2018-06-12T11:55:34.781Z,45.0
2018-06-12T11:56:35.464Z,44.9
2018-06-12T11:57:36.150Z,45.3
2018-06-12T11:58:36.827Z,45.0
2018-06-12T11:59:37.511Z,45.0
2018-06-12T12:00:38.192Z,45.5
2018-06-12T12:01:38.877Z,46.3
2018-06-12T12:02:39.555Z,45.3
2018-06-12T12:03:40.237Z,45.2
2018-06-12T12:04:40.921Z,44.3
2018-06-12T12:05:41.603Z,44.6
2018-06-12T12:06:42.287Z,45.4
2018-06-12T12:07:43.008Z,44.8
2018-06-12T12:08:43.689Z,44.3
2018-06-12T12:09:44.371Z,44.1
2018-06-12T12:10:45.056Z,44.4
2018-06-12T12:11:45.736Z,45.2
2018-06-12T12:12:46.416Z,45.5
2018-06-12T12:13:47.098Z,46.0
2018-06-12T12:14:47.781Z,46.2
2018-06-12T12:15:48.462Z,46.5
2018-06-12T12:16:49.144Z,46.5
2018-06-12T12:17:49.824Z,46.6
2018-06-12T12:18:50.505Z,47.9
2018-06-12T12:19:51.224Z,48.6
2018-06-12T12:20:51.907Z,48.8
2018-06-12T12:21:52.588Z,48.8
2018-06-12T12:22:53.273Z,48.7
2018-06-12T12:23:53.990Z,47.9
2018-06-12T12:24:54.672Z,47.9
2018-06-12T12:25:55.356Z,47.8
2018-06-12T12:26:56.040Z,47.8
2018-06-12T12:27:56.719Z,47.8
2018-06-12T12:28:57.400Z,47.5
2018-06-12T12:29:58.079Z,47.5
2018-06-12T12:30:58.761Z,47.2
2018-06-12T12:31:59.442Z,47.7
2018-06-12T12:33:00.126Z,46.2
2018-06-12T12:34:00.805Z,46.8
2018-06-12T12:35:01.500Z,46.4
2018-06-12T12:36:02.174Z,46.0
2018-06-12T12:37:02.855Z,45.9
2018-06-12T12:38:03.540Z,45.9
2018-06-12T12:39:04.220Z,45.8
2018-06-12T12:40:04.903Z,46.2
2018-06-12T12:41:05.585Z,45.9
2018-06-12T12:42:06.267Z,44.9
2018-06-12T12:43:06.949Z,45.1
2018-06-12T12:44:07.634Z,45.4
2018-06-12T12:45:08.315Z,45.4
2018-06-12T12:46:08.997Z,45.8
2018-06-12T12:47:09.679Z,45.5
2018-06-12T12:48:10.363Z,45.2
2018-06-12T12:49:11.043Z,45.0
2018-06-12T12:50:11.724Z,45.9
2018-06-12T12:51:12.406Z,44.0
2018-06-12T12:52:13.088Z,43.9
2018-06-12T12:53:13.769Z,42.4
2018-06-12T12:54:14.451Z,42.1
2018-06-12T12:55:15.132Z,41.1
2018-06-12T12:56:15.811Z,41.3
2018-06-12T12:57:16.494Z,42.6
2018-06-12T12:58:17.176Z,42.7
2018-06-12T12:59:17.857Z,43.1
2018-06-12T13:00:18.538Z,43.5
2018-06-12T13:01:19.219Z,42.7
2018-06-12T13:02:19.899Z,43.2
2018-06-12T13:03:20.581Z,43.5
2018-06-12T13:04:21.263Z,43.0
2018-06-12T13:05:21.945Z,42.2
2018-06-12T13:06:22.663Z,42.6
2018-06-12T13:07:23.392Z,42.4
2018-06-12T13:08:24.074Z,42.4
2018-06-12T13:09:24.755Z,42.5
2018-06-12T13:10:25.438Z,42.3
2018-06-12T13:11:26.121Z,42.4
2018-06-12T13:12:26.799Z,42.2
2018-06-12T13:13:27.483Z,42.3
2018-06-12T13:14:28.163Z,43.2
2018-06-12T13:15:28.844Z,43.1
2018-06-12T13:16:29.525Z,43.6
2018-06-12T13:17:30.255Z,42.9
2018-06-12T13:18:30.936Z,43.5
2018-06-12T13:19:31.618Z,44.0
2018-06-12T13:20:32.298Z,43.6
2018-06-12T13:21:32.979Z,43.4
2018-06-12T13:22:33.660Z,43.0
2018-06-12T13:23:34.341Z,42.6
2018-06-12T13:24:35.022Z,43.3
2018-06-12T13:25:35.703Z,42.9
2018-06-12T13:26:36.419Z,43.2
2018-06-12T13:27:37.116Z,43.5